CheckWX is a tool to help pilots better visualize weather data.  It is not intended as a substitute for an official pre-flight weather briefing.

12:35:04 UTC

KEGE TAF
Eagle County Regional Airport
Eagle, Colorado, USA
KEGE 191126Z 1912/2012 VRB03KT P6SM SCT200 FM191900 23005KT P6SM FEW250 FM200100 20005KT P6SM FEW250 FM200600 VRB03KT P6SM BKN120

Nov-19@
12:00 UTC

Nov-19 @ 12:00 UTC

Nov-19@
19:00 UTC

Nov-19 @ 19:00 UTC

KEGE 191126Z 1912/2012 VRB03KT P6SM SCT200
Wind
  • Variable at 3 KTS
Cloud Levels
  • Scattered at 20,000' AGL

Nov-19@
19:00 UTC

Nov-19 @ 19:00 UTC

Nov-20@
01:00 UTC

Nov-20 @ 01:00 UTC

FM191900 23005KT P6SM FEW250

From

From Standard forecast or significant change

Wind
  • 230° at 5 KTS
Cloud Levels
  • Few at 25,000' AGL

Nov-20@
01:00 UTC

Nov-20 @ 01:00 UTC

Nov-20@
06:00 UTC

Nov-20 @ 06:00 UTC

FM200100 20005KT P6SM FEW250

From

From Standard forecast or significant change

Wind
  • 200° at 5 KTS
Cloud Levels
  • Few at 25,000' AGL

Nov-20@
06:00 UTC

Nov-20 @ 06:00 UTC

Nov-20@
12:00 UTC

Nov-20 @ 12:00 UTC

FM200600 VRB03KT P6SM BKN120

From

From Standard forecast or significant change

Wind
  • Variable at 3 KTS
Cloud Levels
  • Broken at 12,000' AGL